Moapa, Nevada
Current Conditions -  °F | °C
As of 10:58 PM on Saturday 22 Nov 2014 (Local Time) from KLSV Reporting Station
Clear Clear  
Wind Chill: 56°   Ceiling: Unl
Heat Index: 56°   Visibility: 10mi
Dew Point: 31°   Wind: 9mph
Humidity: 38%   Direction: 290°WNW
Pressure: 29.93"   Gusts: NA
Location:  36.67°N, 114.62°W
Report Text: KLSV 230658Z AUTO 29008KT 10SM CLR 14/M01 A2993 RMK AO2 SLP126 T01351007
Loading
Personal Weather Stations






























Interactive Weather Map New forecast layout! Learn more

10-Day Weather Forecast

Advertisements
Track Severe Weather on mobile